Time;durP1;ratioP1;P1;durP2;ratioP2;P2;SDS_P1;SDS_P2;PMS_P1;PMS_P2;Temp;Humidity;BMP_temperature;BMP_pressure;BME280_temperature;BME280_humidity;BME280_pressure;Samples;Min_cycle;Max_cycle;Signal;HPM_P1;HPM_P2
2021/08/19 00:00:11;;;;;;;;;;;;;;;16.51;100.00;100262.00;5091791;28;19924;-67
2021/08/19 00:02:38;;;;;;;;;;;;;;;16.52;100.00;100263.72;5091146;28;19964;-66
2021/08/19 00:05:04;;;;;;;;;;;;;;;16.49;100.00;100264.91;5091701;28;19958;-69
2021/08/19 00:07:31;;;;;;;;;;;;;;;16.49;100.00;100256.69;5091400;28;19967;-69
2021/08/19 00:09:57;;;;;;;;;;;;;;;16.48;100.00;100249.50;5091490;28;19963;-69
2021/08/19 00:12:24;;;;;;;;;;;;;;;16.47;100.00;100253.25;5091785;28;19935;-67
2021/08/19 00:14:51;;;;;;;;;;;;;;;16.44;100.00;100250.88;5091329;28;19928;-67
2021/08/19 00:17:18;;;;;;;;;;;;;;;16.42;100.00;100255.66;5091414;28;19959;-69
2021/08/19 00:19:44;;;;;;;;;;;;;;;16.40;100.00;100250.38;5091337;28;20410;-69
2021/08/19 00:22:10;;;;;;;;;;;;;;;16.39;100.00;100254.16;5091457;28;20425;-69
2021/08/19 00:24:37;;;;;;;;;;;;;;;16.38;100.00;100252.44;5091758;28;19978;-69
2021/08/19 00:27:03;;;;;;;;;;;;;;;16.37;100.00;100249.88;5091205;28;19958;-69
2021/08/19 00:29:30;;;;;;;;;;;;;;;16.35;100.00;100246.44;5091430;28;19944;-69
2021/08/19 00:31:57;;;;;;;;;;;;;;;16.36;100.00;100253.66;5091129;28;19947;-72
2021/08/19 00:34:24;;;;;;;;;;;;;;;16.37;100.00;100249.88;5091426;28;19967;-71
2021/08/19 00:36:50;;;;;;;;;;;;;;;16.38;100.00;100259.78;5090804;28;19951;-71
2021/08/19 00:39:17;;;;;;;;;;;;;;;16.40;100.00;100257.75;5095092;28;19924;-72
2021/08/19 00:41:43;;;;;;;;;;;;;;;16.42;100.00;100257.56;5095209;28;19966;-72
2021/08/19 00:44:10;;;;;;;;;;;;;;;16.41;100.00;100259.47;5095098;28;19993;-69
2021/08/19 00:46:37;;;;;;;;;;;;;;;16.40;100.00;100255.00;5095126;28;20000;-69
2021/08/19 00:49:05;;;;;;;;;;;;;;;16.40;100.00;100257.75;5094563;28;20337;-69
2021/08/19 00:51:33;;;;;;;;;;;;;;;16.42;100.00;100258.41;5095007;28;20391;-69
2021/08/19 00:53:59;;;;;;;;;;;;;;;16.42;100.00;100255.66;5095021;28;20296;-68
2021/08/19 00:56:25;;;;;;;;;;;;;;;16.43;100.00;100243.69;5094611;28;19967;-69
2021/08/19 00:58:52;;;;;;;;;;;;;;;16.45;100.00;100259.94;5094727;28;19975;-68
2021/08/19 01:01:18;;;;;;;;;;;;;;;16.43;100.00;100254.66;5094538;28;19962;-68
2021/08/19 01:03:45;;;;;;;;;;;;;;;16.43;100.00;100257.38;5094809;28;19971;-68
2021/08/19 01:06:12;;;;;;;;;;;;;;;16.41;100.00;100259.47;5094665;28;19977;-69
2021/08/19 01:08:38;;;;;;;;;;;;;;;16.40;100.00;100255.00;5094280;28;19971;-71
2021/08/19 01:11:05;;;;;;;;;;;;;;;16.38;100.00;100268.88;5094697;28;19974;-71
2021/08/19 01:13:33;;;;;;;;;;;;;;;16.39;100.00;100258.75;5094426;28;20370;-72
2021/08/19 01:16:00;;;;;;;;;;;;;;;16.38;100.00;100254.31;5094593;28;20288;-71
2021/08/19 01:18:26;;;;;;;;;;;;;;;16.39;100.00;100258.75;5094230;28;19963;-71
2021/08/19 01:20:52;;;;;;;;;;;;;;;16.38;100.00;100254.31;5094856;28;20019;-71
2021/08/19 01:23:20;;;;;;;;;;;;;;;16.37;100.00;100258.94;5094409;28;19985;-67
2021/08/19 01:25:46;;;;;;;;;;;;;;;16.36;100.00;100251.75;5094402;28;20398;-67
2021/08/19 01:28:14;;;;;;;;;;;;;;;16.35;100.00;100249.19;5094131;28;19967;-67
2021/08/19 01:30:40;;;;;;;;;;;;;;;16.33;100.00;100254.84;5094277;28;20328;-67
2021/08/19 01:33:06;;;;;;;;;;;;;;;16.32;100.00;100255.03;5094359;28;19924;-67
2021/08/19 01:35:33;;;;;;;;;;;;;;;16.33;100.00;100245.78;5093944;28;20014;-66
2021/08/19 01:37:59;;;;;;;;;;;;;;;16.32;100.00;100255.88;5094247;28;19974;-71
2021/08/19 01:40:25;;;;;;;;;;;;;;;16.30;100.00;100257.94;5093979;28;20034;-71
2021/08/19 01:42:51;;;;;;;;;;;;;;;16.31;100.00;100250.56;5094014;28;20026;-67
2021/08/19 01:45:21;;;;;;;;;;;;;;;16.31;100.00;100250.56;5094212;28;19924;-67
2021/08/19 01:47:48;;;;;;;;;;;;;;;16.31;100.00;100258.78;5093752;28;19924;-68
2021/08/19 01:50:14;;;;;;;;;;;;;;;16.30;100.00;100255.19;5094016;28;19934;-68
2021/08/19 01:52:41;;;;;;;;;;;;;;;16.29;100.00;100255.34;5093745;28;20014;-68
2021/08/19 01:55:08;;;;;;;;;;;;;;;16.28;100.00;100256.41;5093991;28;20020;-69
2021/08/19 01:57:34;;;;;;;;;;;;;;;16.29;100.00;100261.69;5093740;28;19924;-69
2021/08/19 02:00:00;;;;;;;;;;;;;;;16.29;100.00;100255.34;5075419;28;20360;-69
2021/08/19 02:02:29;;;;;;;;;;;;;;;16.30;100.00;100257.06;5093598;28;19947;-69
2021/08/19 02:04:55;;;;;;;;;;;;;;;16.29;100.00;100264.44;5093494;28;19939;-68
2021/08/19 02:07:21;;;;;;;;;;;;;;;16.29;100.00;100264.44;5093415;28;20018;-69
2021/08/19 02:09:48;;;;;;;;;;;;;;;16.29;100.00;100261.69;5093441;28;20022;-69
2021/08/19 02:12:14;;;;;;;;;;;;;;;16.28;100.00;100256.41;5075343;28;20370;-70
2021/08/19 02:14:40;;;;;;;;;;;;;;;16.28;100.00;100259.13;5093511;28;19924;-67
2021/08/19 02:17:07;;;;;;;;;;;;;;;16.28;100.00;100250.94;5093231;28;20169;-69
2021/08/19 02:19:34;;;;;;;;;;;;;;;16.28;100.00;100249.03;5093482;28;20030;-67
2021/08/19 02:22:00;;;;;;;;;;;;;;;16.28;100.00;100246.28;5093217;28;20027;-67
2021/08/19 02:24:27;;;;;;;;;;;;;;;16.27;100.00;100251.94;5093325;28;20302;-66
2021/08/19 02:26:53;;;;;;;;;;;;;;;16.26;100.00;100250.22;5093004;28;19924;-71
2021/08/19 02:29:19;;;;;;;;;;;;;;;16.26;100.00;100256.56;5093133;28;20418;-71
2021/08/19 02:31:46;;;;;;;;;;;;;;;16.24;100.00;100250.41;5093194;28;20026;-71
2021/08/19 02:34:12;;;;;;;;;;;;;;;16.22;100.00;100241.50;5092952;28;19930;-68
2021/08/19 02:36:40;;;;;;;;;;;;;;;16.20;100.00;100244.41;5093085;28;20015;-71
2021/08/19 02:39:06;;;;;;;;;;;;;;;16.19;100.00;100242.72;5092849;28;20031;-68
2021/08/19 02:41:32;;;;;;;;;;;;;;;16.19;100.00;100241.84;5093124;28;19936;-67
2021/08/19 02:43:58;;;;;;;;;;;;;;;16.19;100.00;100237.25;5092787;28;20030;-71
2021/08/19 02:46:28;;;;;;;;;;;;;;;16.19;100.00;100239.13;5074526;28;20331;-71
2021/08/19 02:48:54;;;;;;;;;;;;;;;16.20;100.00;100230.72;5092841;28;19977;-71
2021/08/19 02:51:20;;;;;;;;;;;;;;;16.20;100.00;100227.97;5092486;28;20413;-72
2021/08/19 02:53:48;;;;;;;;;;;;;;;16.20;100.00;100238.09;5092879;28;19924;-69
2021/08/19 02:56:14;;;;;;;;;;;;;;;16.18;100.00;100232.78;5092415;28;19935;-69
2021/08/19 02:58:40;;;;;;;;;;;;;;;16.19;100.00;100233.63;5092480;28;20015;-69
2021/08/19 03:01:06;;;;;;;;;;;;;;;16.18;100.00;100235.53;5091604;28;19970;-67
2021/08/19 03:03:33;;;;;;;;;;;;;;;16.16;100.00;100236.72;5073005;28;19924;-67
2021/08/19 03:05:59;;;;;;;;;;;;;;;16.14;100.00;100236.91;5092487;28;20023;-69
2021/08/19 03:08:25;;;;;;;;;;;;;;;16.14;100.00;100228.69;5091927;28;19934;-69
2021/08/19 03:10:53;;;;;;;;;;;;;;;16.13;100.00;100224.25;5092505;28;19928;-69
2021/08/19 03:13:19;;;;;;;;;;;;;;;16.13;100.00;100228.84;5092138;28;19931;-69
2021/08/19 03:15:45;;;;;;;;;;;;;;;16.11;100.00;100230.91;5092447;28;20344;-67
2021/08/19 03:18:12;;;;;;;;;;;;;;;16.10;100.00;100227.34;5092323;28;20026;-67
2021/08/19 03:20:38;;;;;;;;;;;;;;;16.09;100.00;100220.16;5092247;28;19971;-65
2021/08/19 03:23:04;;;;;;;;;;;;;;;16.08;100.00;100234.84;5092236;28;20352;-71
2021/08/19 03:25:31;;;;;;;;;;;;;;;16.08;100.00;100231.28;5091890;28;19927;-70
2021/08/19 03:28:02;;;;;;;;;;;;;;;16.08;100.00;100223.06;5092313;28;19924;-69
2021/08/19 03:30:28;;;;;;;;;;;;;;;16.08;100.00;100225.78;5091884;28;19985;-69
2021/08/19 03:32:55;;;;;;;;;;;;;;;16.08;100.00;100228.53;5092040;28;20443;-69
2021/08/19 03:35:21;;;;;;;;;;;;;;;16.06;100.00;100229.56;5091855;28;20015;-69
2021/08/19 03:37:47;;;;;;;;;;;;;;;16.06;100.00;100232.28;5091806;28;20018;-69
2021/08/19 03:40:14;;;;;;;;;;;;;;;16.05;100.00;100230.56;5091836;28;19960;-69
2021/08/19 03:42:41;;;;;;;;;;;;;;;16.04;100.00;100231.59;5073471;28;19930;-69
2021/08/19 03:45:10;;;;;;;;;;;;;;;16.06;100.00;100235.03;5091972;28;20455;-69
2021/08/19 03:47:36;;;;;;;;;;;;;;;16.06;100.00;100237.78;5091634;28;20387;-69
2021/08/19 03:50:03;;;;;;;;;;;;;;;16.06;100.00;100236.91;5091951;28;19928;-69
2021/08/19 03:52:29;;;;;;;;;;;;;;;16.06;100.00;100235.03;5091839;28;19932;-70
2021/08/19 03:54:57;;;;;;;;;;;;;;;16.05;100.00;100227.84;5091909;28;19936;-69
2021/08/19 03:57:23;;;;;;;;;;;;;;;16.06;100.00;100236.91;5091695;28;19924;-68
2021/08/19 03:59:49;;;;;;;;;;;;;;;16.05;100.00;100238.78;5091602;28;19983;-68
2021/08/19 04:02:17;;;;;;;;;;;;;;;16.06;100.00;100245.97;5091844;28;20023;-68
2021/08/19 04:04:43;;;;;;;;;;;;;;;16.05;100.00;100246.16;5091550;28;20019;-69
2021/08/19 04:07:10;;;;;;;;;;;;;;;16.04;100.00;100239.81;5091613;28;20366;-71
2021/08/19 04:09:36;;;;;;;;;;;;;;;16.02;100.00;100241.00;5091935;28;19924;-71
2021/08/19 04:12:03;;;;;;;;;;;;;;;16.02;100.00;100246.47;5091675;28;20011;-71
2021/08/19 04:14:31;;;;;;;;;;;;;;;16.03;100.00;100243.59;5096029;28;19928;-69
2021/08/19 04:16:57;;;;;;;;;;;;;;;16.02;100.00;100241.00;5095503;28;19924;-68
2021/08/19 04:19:25;;;;;;;;;;;;;;;16.01;100.00;100239.31;5095758;28;20019;-69
2021/08/19 04:21:51;;;;;;;;;;;;;;;15.98;100.00;100235.03;5095843;28;20018;-70
2021/08/19 04:24:18;;;;;;;;;;;;;;;15.92;100.00;100243.94;5095400;28;19964;-69
2021/08/19 04:26:44;;;;;;;;;;;;;;;15.88;100.00;100246.13;5095623;28;19977;-69
2021/08/19 04:29:10;;;;;;;;;;;;;;;15.82;100.00;100256.91;5095415;28;20014;-70
2021/08/19 04:31:37;;;;;;;;;;;;;;;15.77;100.00;100260.16;5090430;28;19959;-67
2021/08/19 04:34:03;;;;;;;;;;;;;;;15.74;100.00;100266.81;5082741;28;20027;-68
2021/08/19 04:36:31;;;;;;;;;;;;;;;15.69;100.00;100269.19;5095110;28;19928;-66
2021/08/19 04:38:57;;;;;;;;;;;;;;;15.64;100.00;100262.53;5080749;28;20401;-63
2021/08/19 04:41:24;;;;;;;;;;;;;;;15.61;100.00;100271.09;5089857;28;19930;-71
2021/08/19 04:43:50;;;;;;;;;;;;;;;15.61;100.00;100271.94;5076303;28;20380;-71
2021/08/19 04:46:16;;;;;;;;;;;;;;;15.64;100.00;100273.47;5076606;28;20289;-71
2021/08/19 04:48:42;;;;;;;;;;;;;;;15.65;100.00;100280.66;5084397;28;20010;-71
2021/08/19 04:51:09;;;;;;;;;;;;;;;15.68;100.00;100274.84;5095297;28;19967;-71
2021/08/19 04:53:36;;;;;;;;;;;;;;;15.75;100.00;100281.34;5087206;28;20027;-71
2021/08/19 04:56:03;;;;;;;;;;;;;;;15.79;100.00;100279.97;5074925;28;19952;-71
2021/08/19 04:58:29;;;;;;;;;;;;;;;15.90;100.00;100281.56;5081691;28;20015;-72
2021/08/19 05:00:56;;;;;;;;;;;;;;;15.95;100.00;100275.56;5075845;28;20150;-72
2021/08/19 05:03:22;;;;;;;;;;;;;;;15.98;100.00;100277.97;5089684;28;20031;-67
2021/08/19 05:05:48;;;;;;;;;;;;;;;16.03;100.00;100279.19;5076761;28;20342;-68
2021/08/19 05:08:15;;;;;;;;;;;;;;;15.98;100.00;100283.44;5075613;28;19975;-68
2021/08/19 05:10:42;;;;;;;;;;;;;;;15.96;100.00;100277.28;5074287;28;19971;-68
2021/08/19 05:13:08;;;;;;;;;;;;;;;15.92;100.00;100279.50;5087834;28;20369;-68
2021/08/19 05:15:35;;;;;;;;;;;;;;;15.86;100.00;100283.78;5094698;28;19928;-68
2021/08/19 05:18:01;;;;;;;;;;;;;;;15.88;100.00;100286.34;5087793;28;19924;-66
2021/08/19 05:20:28;;;;;;;;;;;;;;;15.87;100.00;100285.50;5081609;28;19924;-71
2021/08/19 05:22:54;;;;;;;;;;;;;;;15.75;100.00;100295.00;5093990;28;19992;-71
2021/08/19 05:25:20;;;;;;;;;;;;;;;15.73;100.00;100291.63;5087027;28;19931;-71
2021/08/19 05:27:48;;;;;;;;;;;;;;;15.75;100.00;100297.75;5057522;28;20019;-65
2021/08/19 05:30:14;;;;;;;;;;;;;;;15.86;100.00;100296.59;5084659;28;19934;-66
2021/08/19 05:32:40;;;;;;;;;;;;;;;15.92;100.00;100301.41;5083454;28;20023;-66
2021/08/19 05:35:07;;;;;;;;;;;;;;;15.87;100.00;100304.66;5074206;28;19929;-69
2021/08/19 05:37:33;;;;;;;;;;;;;;;15.85;100.00;100300.38;5082283;28;19978;-69
2021/08/19 05:39:59;;;;;;;;;;;;;;;15.87;100.00;100307.41;5078601;28;20369;-67
2021/08/19 05:42:26;;;;;;;;;;;;;;;16.05;100.00;100306.38;5079529;28;20193;-68
2021/08/19 05:44:53;;;;;;;;;;;;;;;16.28;100.00;100305.69;5090274;28;19924;-64
2021/08/19 05:47:20;;;;;;;;;;;;;;;16.66;100.00;100304.09;5088946;28;20031;-68
2021/08/19 05:49:46;;;;;;;;;;;;;;;17.03;100.00;100299.03;5080829;28;19932;-68
2021/08/19 05:52:14;;;;;;;;;;;;;;;17.09;100.00;100303.81;5084594;28;20018;-67
2021/08/19 05:54:41;;;;;;;;;;;;;;;17.11;100.00;100296.25;5085710;28;19935;-71
2021/08/19 05:57:08;;;;;;;;;;;;;;;17.04;100.00;100306.25;5093784;28;20475;-66
2021/08/19 05:59:34;;;;;;;;;;;;;;;16.85;100.00;100299.22;5086839;28;20300;-64
2021/08/19 06:02:02;;;;;;;;;;;;;;;16.61;100.00;100305.63;5073610;28;19951;-71
2021/08/19 06:04:28;;;;;;;;;;;;;;;16.48;100.00;100319.88;5078459;28;19925;-67
2021/08/19 06:06:55;;;;;;;;;;;;;;;16.45;100.00;100312.00;5093356;28;20339;-66
2021/08/19 06:09:21;;;;;;;;;;;;;;;16.43;100.00;100316.81;5091874;28;19963;-64
2021/08/19 06:11:47;;;;;;;;;;;;;;;16.41;100.00;100325.19;5075355;28;19928;-66
2021/08/19 06:14:14;;;;;;;;;;;;;;;16.35;100.00;100325.88;5074428;28;20031;-71
2021/08/19 06:16:40;;;;;;;;;;;;;;;16.43;100.00;100322.28;5073081;28;20015;-67
2021/08/19 06:19:08;;;;;;;;;;;;;;;16.37;100.00;100326.56;5077746;28;19927;-67
2021/08/19 06:21:34;;;;;;;;;;;;;;;16.34;100.00;100322.28;5093221;28;20471;-67
2021/08/19 06:24:00;;;;;;;;;;;;;;;16.33;100.00;100325.22;5091475;28;19967;-68
2021/08/19 06:26:27;;;;;;;;;;;;;;;16.29;100.00;100334.75;5073848;28;20019;-67
2021/08/19 06:28:53;;;;;;;;;;;;;;;16.19;100.00;100338.56;5086574;28;19924;-71
2021/08/19 06:31:19;;;;;;;;;;;;;;;16.17;100.00;100337.03;5085031;28;19958;-71
2021/08/19 06:33:46;;;;;;;;;;;;;;;16.14;100.00;100338.22;5093045;28;19924;-71
2021/08/19 06:36:13;;;;;;;;;;;;;;;16.18;100.00;100341.44;5084234;28;20019;-65
2021/08/19 06:38:39;;;;;;;;;;;;;;;16.08;100.00;100338.88;5072905;28;19972;-67
2021/08/19 06:41:06;;;;;;;;;;;;;;;16.12;100.00;100333.94;5074114;28;20015;-67
2021/08/19 06:43:32;;;;;;;;;;;;;;;16.13;100.00;100335.63;5081049;28;20027;-66
2021/08/19 06:45:58;;;;;;;;;;;;;;;16.14;100.00;100331.88;5089294;28;20359;-72
2021/08/19 06:48:26;;;;;;;;;;;;;;;16.18;100.00;100339.59;5088551;28;20422;-66
2021/08/19 06:50:52;;;;;;;;;;;;;;;16.16;100.00;100340.78;5092375;28;19977;-67
2021/08/19 06:53:19;;;;;;;;;;;;;;;16.18;100.00;100339.59;5092385;28;19978;-65
2021/08/19 06:55:46;;;;;;;;;;;;;;;16.41;100.00;100341.63;5073949;28;20057;-65
2021/08/19 06:58:12;;;;;;;;;;;;;;;16.64;100.00;100338.19;5058666;28;19924;-65
2021/08/19 07:00:39;;;;;;;;;;;;;;;16.70;100.00;100337.47;5073832;28;19924;-65
2021/08/19 07:03:05;;;;;;;;;;;;;;;16.76;100.00;100346.91;5085106;28;20474;-65
2021/08/19 07:05:32;;;;;;;;;;;;;;;16.63;100.00;100336.47;5092102;28;19966;-71
2021/08/19 07:07:59;;;;;;;;;;;;;;;16.65;100.00;100345.34;5091201;28;20446;-71
2021/08/19 07:10:27;;;;;;;;;;;;;;;16.54;100.00;100338.34;5092195;28;20445;-67
2021/08/19 07:12:54;;;;;;;;;;;;;;;16.59;100.00;100354.28;5083005;28;19924;-67
2021/08/19 07:15:20;;;;;;;;;;;;;;;16.40;100.00;100348.13;5090031;28;19931;-71
2021/08/19 07:17:46;;;;;;;;;;;;;;;16.44;100.00;100349.50;5082819;28;19956;-68
2021/08/19 07:20:13;;;;;;;;;;;;;;;16.50;100.00;100354.28;5071320;28;20011;-67
2021/08/19 07:22:39;;;;;;;;;;;;;;;16.60;100.00;100356.84;5078944;28;20018;-67
2021/08/19 07:25:06;;;;;;;;;;;;;;;16.71;100.00;100347.41;5091026;28;19924;-71
2021/08/19 07:27:33;;;;;;;;;;;;;;;16.69;100.00;100354.97;5091125;28;20030;-71
2021/08/19 07:29:59;;;;;;;;;;;;;;;16.51;100.00;100350.50;5087623;28;19931;-71
2021/08/19 07:32:26;;;;;;;;;;;;;;;16.56;100.00;100358.22;5070609;28;20388;-68
2021/08/19 07:34:52;;;;;;;;;;;;;;;16.72;100.00;100355.44;5072383;28;20015;-71
2021/08/19 07:37:18;;;;;;;;;;;;;;;16.77;100.00;100354.06;5091365;28;20242;-71
2021/08/19 07:39:45;;;;;;;;;;;;;;;16.90;100.00;100359.88;5083186;28;20349;-71
2021/08/19 07:42:11;;;;;;;;;;;;;;;17.06;100.00;100364.47;5085955;28;20023;-71
2021/08/19 07:44:38;;;;;;;;;;;;;;;17.16;100.00;100356.91;5090260;28;20038;-71
2021/08/19 07:47:05;;;;;;;;;;;;;;;17.09;100.00;100358.66;5077625;28;19956;-71
2021/08/19 07:49:31;;;;;;;;;;;;;;;17.10;100.00;100359.50;5076398;28;20409;-68
2021/08/19 07:51:57;;;;;;;;;;;;;;;17.19;100.00;100356.56;5091397;28;19959;-71
2021/08/19 07:54:24;;;;;;;;;;;;;;;17.13;100.00;100351.78;5089615;28;20408;-71
2021/08/19 07:56:50;;;;;;;;;;;;;;;17.34;100.00;100355.81;5072344;28;19959;-64
2021/08/19 07:59:16;;;;;;;;;;;;;;;17.33;100.00;100365.06;5083033;28;20022;-64
2021/08/19 08:01:44;;;;;;;;;;;;;;;17.28;100.00;100365.63;5082513;28;20019;-65
2021/08/19 08:04:11;;;;;;;;;;;;;;;17.23;100.00;100360.66;5071134;28;20023;-65
2021/08/19 08:06:37;;;;;;;;;;;;;;;17.21;100.00;100368.22;5078158;28;20395;-67
2021/08/19 08:09:04;;;;;;;;;;;;;;;17.19;100.00;100378.50;5091505;28;20019;-66
2021/08/19 08:11:30;;;;;;;;;;;;;;;17.12;100.00;100377.50;5089414;28;19931;-72
2021/08/19 08:13:56;;;;;;;;;;;;;;;17.20;100.00;100380.22;5072044;28;20414;-71
2021/08/19 08:16:23;;;;;;;;;;;;;;;17.43;100.00;100382.19;5075570;28;19924;-66
2021/08/19 08:18:50;;;;;;;;;;;;;;;17.44;100.00;100374.78;5091332;28;20402;-65
2021/08/19 08:21:17;;;;;;;;;;;;;;;17.38;100.00;100374.50;5086404;28;20411;-66
2021/08/19 08:23:43;;;;;;;;;;;;;;;17.53;100.00;100379.22;5071073;28;19952;-65
2021/08/19 08:26:10;;;;;;;;;;;;;;;17.63;100.00;100381.75;5073889;28;20027;-66
2021/08/19 08:28:36;;;;;;;;;;;;;;;17.68;100.00;100380.19;5063413;28;19988;-66
2021/08/19 08:31:03;;;;;;;;;;;;;;;17.51;100.00;100379.41;5072539;28;19924;-66
2021/08/19 08:33:30;;;;;;;;;;;;;;;17.55;100.00;100382.66;5070481;28;19932;-67
2021/08/19 08:35:58;;;;;;;;;;;;;;;17.52;100.00;100397.56;5088023;28;20299;-66
2021/08/19 08:38:25;;;;;;;;;;;;;;;17.57;100.00;100394.28;5091057;28;19970;-67
2021/08/19 08:40:52;;;;;;;;;;;;;;;17.63;100.00;100390.84;5075341;28;20007;-67
2021/08/19 08:43:20;;;;;;;;;;;;;;;17.77;100.00;100397.47;5071885;28;19928;-65
2021/08/19 08:45:47;;;;;;;;;;;;;;;17.77;100.00;100397.47;5083498;28;19924;-66
2021/08/19 08:48:14;;;;;;;;;;;;;;;17.68;100.00;100404.03;5070783;28;19924;-66
2021/08/19 08:50:41;;;;;;;;;;;;;;;17.48;100.00;100412.69;5073036;28;20304;-67
2021/08/19 08:53:10;;;;;;;;;;;;;;;17.42;100.00;100418.03;5090873;28;20019;-67
2021/08/19 08:55:36;;;;;;;;;;;;;;;17.44;100.00;100414.06;5077723;28;19928;-66
2021/08/19 08:58:03;;;;;;;;;;;;;;;17.47;100.00;100424.69;5088615;28;19924;-66
2021/08/19 09:00:29;;;;;;;;;;;;;;;17.47;100.00;100421.94;5094174;28;20368;-66
2021/08/19 09:02:56;;;;;;;;;;;;;;;17.39;100.00;100425.56;5087020;28;20014;-66
2021/08/19 09:05:23;;;;;;;;;;;;;;;17.34;100.00;100428.00;5079677;28;20159;-66
2021/08/19 09:07:54;;;;;;;;;;;;;;;17.29;100.00;100421.31;5082483;28;20358;-64
2021/08/19 09:10:23;;;;;;;;;;;;;;;17.32;100.00;100429.22;5056229;28;20375;-64
2021/08/19 09:12:49;;;;;;;;;;;;;;;17.22;100.00;100433.00;5077038;28;19964;-64
2021/08/19 09:15:17;;;;;;;;;;;;;;;17.19;100.00;100441.56;5080851;28;19931;-64
2021/08/19 09:17:44;;;;;;;;;;;;;;;17.19;100.00;100429.75;5074329;28;19931;-64
2021/08/19 09:20:12;;;;;;;;;;;;;;;17.09;100.00;100437.31;5094433;28;19997;-67
2021/08/19 09:22:51;;;;;;;;;;;;;;;17.20;100.00;100446.03;5093674;28;19964;-72
2021/08/19 09:25:26;;;;;;;;;;;;;;;17.31;100.00;100442.06;5074766;28;20027;-71
2021/08/19 09:28:13;;;;;;;;;;;;;;;17.37;100.00;100441.38;5083869;28;19935;-71
2021/08/19 09:30:40;;;;;;;;;;;;;;;17.51;100.00;100447.16;5093077;28;19928;-71
2021/08/19 09:33:07;;;;;;;;;;;;;;;17.70;100.00;100448.59;5093338;28;19924;-66
2021/08/19 09:35:33;;;;;;;;;;;;;;;17.90;100.00;100441.66;5090030;28;20039;-65
2021/08/19 09:38:05;;;;;;;;;;;;;;;18.17;100.00;100438.59;5089419;28;19964;-64
2021/08/19 09:40:33;;;;;;;;;;;;;;;18.38;100.00;100435.22;5072648;28;20433;-72
2021/08/19 09:42:59;;;;;;;;;;;;;;;18.49;100.00;100442.16;5073066;28;19967;-67
2021/08/19 09:45:26;;;;;;;;;;;;;;;18.77;100.00;100436.94;5073557;28;20019;-71
2021/08/19 09:47:53;;;;;;;;;;;;;;;18.49;100.00;100426.56;5075681;28;20052;-64
2021/08/19 09:50:20;;;;;;;;;;;;;;;18.48;100.00;100440.44;5089048;28;19975;-63
2021/08/19 09:52:47;;;;;;;;;;;;;;;18.64;100.00;100442.22;5096293;28;19929;-64
2021/08/19 09:55:20;;;;;;;;;;;;;;;18.66;100.00;100442.91;5090339;28;20471;-65
2021/08/19 09:57:48;;;;;;;;;;;;;;;18.68;100.00;100441.69;5083866;28;19928;-65
2021/08/19 10:00:22;;;;;;;;;;;;;;;18.58;100.00;100441.91;5091931;28;20016;-65
2021/08/19 10:02:48;;;;;;;;;;;;;;;18.60;100.00;100440.88;5093299;28;20218;-72
2021/08/19 10:05:16;;;;;;;;;;;;;;;18.48;100.00;100446.81;5088815;28;19932;-67
2021/08/19 10:07:43;;;;;;;;;;;;;;;18.50;100.00;100447.47;5072624;28;19967;-67
2021/08/19 10:10:09;;;;;;;;;;;;;;;18.51;100.00;100440.94;5083346;28;19950;-64
2021/08/19 10:12:36;;;;;;;;;;;;;;;18.39;100.00;100443.25;5093111;28;19967;-64
2021/08/19 10:15:05;;;;;;;;;;;;;;;18.35;100.00;100447.41;5084249;28;20014;-64
2021/08/19 10:17:31;;;;;;;;;;;;;;;18.34;100.00;100448.44;5072691;28;20114;-64
2021/08/19 10:19:57;;;;;;;;;;;;;;;18.31;100.00;100445.22;5080472;28;20019;-64
2021/08/19 10:22:24;;;;;;;;;;;;;;;18.17;100.00;100444.09;5092922;28;20023;-64
2021/08/19 10:24:52;;;;;;;;;;;;;;;18.04;100.00;100441.97;5085759;28;20015;-64
2021/08/19 10:27:20;;;;;;;;;;;;;;;18.02;100.00;100441.28;5072307;28;20028;-64
2021/08/19 10:29:47;;;;;;;;;;;;;;;18.33;100.00;100445.88;5079051;28;20003;-64
2021/08/19 10:32:29;;;;;;;;;;;;;;;18.72;100.00;100444.91;5092233;28;20019;-64
2021/08/19 10:35:00;;;;;;;;;;;;;;;19.44;100.00;100442.66;5092022;28;19924;-64
2021/08/19 10:37:45;;;;;;;;;;;;;;;19.98;100.00;100433.25;5080384;28;19924;-64
2021/08/19 10:40:28;;;;;;;;;;;;;;;20.27;100.00;100436.94;5080489;28;19954;-72
2021/08/19 10:42:55;;;;;;;;;;;;;;;20.01;100.00;100435.59;5092820;28;19924;-65
2021/08/19 10:45:41;;;;;;;;;;;;;;;19.89;100.00;100438.84;5084288;28;20019;-72
2021/08/19 10:48:21;;;;;;;;;;;;;;;19.86;100.00;100442.00;5074847;28;20319;-72
2021/08/19 10:50:48;;;;;;;;;;;;;;;19.93;100.00;100444.00;5078791;28;19929;-72
2021/08/19 10:53:16;;;;;;;;;;;;;;;20.06;100.00;100441.38;5063930;28;19982;-72
2021/08/19 10:55:43;;;;;;;;;;;;;;;19.82;100.00;100432.41;5080520;28;20011;-66
2021/08/19 10:58:26;;;;;;;;;;;;;;;20.03;100.00;100434.38;5077600;28;20456;-67
2021/08/19 11:00:53;;;;;;;;;;;;;;;20.45;100.00;100434.59;5084665;28;19943;-67
2021/08/19 11:03:49;;;;;;;;;;;;;;;21.01;100.00;100428.31;5076071;28;20014;-72
2021/08/19 11:06:18;;;;;;;;;;;;;;;21.39;100.00;100427.94;5010096;28;20020;-72
2021/08/19 11:08:47;;;;;;;;;;;;;;;21.37;100.00;100431.97;5072607;28;21549;-72
2021/08/19 11:11:14;;;;;;;;;;;;;;;21.26;100.00;100429.75;5092169;28;19924;-71
2021/08/19 11:13:41;;;;;;;;;;;;;;;20.73;100.00;100437.44;5076404;28;20022;-66
2021/08/19 11:16:08;;;;;;;;;;;;;;;20.02;100.00;100437.31;5071643;28;19964;-71
2021/08/19 11:18:35;;;;;;;;;;;;;;;19.73;100.00;100450.06;5076506;28;20026;-68
2021/08/19 11:21:03;;;;;;;;;;;;;;;19.45;100.00;100442.47;5083826;28;19959;-64
2021/08/19 11:23:31;;;;;;;;;;;;;;;19.42;100.00;100448.38;5091470;28;19924;-67
2021/08/19 11:26:01;;;;;;;;;;;;;;;19.48;100.00;100455.88;5080242;28;19928;-67
2021/08/19 11:28:33;;;;;;;;;;;;;;;19.64;100.00;100451.19;5071352;28;20011;-67
2021/08/19 11:31:00;;;;;;;;;;;;;;;19.66;100.00;100446.38;5077409;28;20451;-69
2021/08/19 11:33:27;;;;;;;;;;;;;;;19.84;100.00;100460.63;5091669;28;19924;-69
2021/08/19 11:35:54;;;;;;;;;;;;;;;19.68;100.00;100447.88;5063428;28;19924;-69
2021/08/19 11:38:21;;;;;;;;;;;;;;;19.72;100.00;100457.47;5091589;28;20361;-69
2021/08/19 11:40:50;;;;;;;;;;;;;;;19.72;100.00;100454.72;5089919;28;19930;-71
2021/08/19 11:43:20;;;;;;;;;;;;;;;19.84;100.00;100449.59;5078419;28;19959;-67
2021/08/19 11:45:47;;;;;;;;;;;;;;;19.49;100.00;100452.06;5071379;28;19929;-70
2021/08/19 11:48:13;;;;;;;;;;;;;;;19.39;100.00;100455.09;5056348;28;19969;-69
2021/08/19 11:50:39;;;;;;;;;;;;;;;19.17;100.00;100456.88;5091666;28;19985;-70
2021/08/19 11:53:06;;;;;;;;;;;;;;;19.02;100.00;100470.59;5088776;28;19924;-69
2021/08/19 11:55:33;;;;;;;;;;;;;;;18.97;100.00;100472.22;5071154;28;20023;-70
2021/08/19 11:58:20;;;;;;;;;;;;;;;18.79;100.00;100469.78;5071846;28;19925;-67
2021/08/19 12:00:56;;;;;;;;;;;;;;;18.57;100.00;100475.94;5072405;28;19928;-69
2021/08/19 12:03:22;;;;;;;;;;;;;;;18.44;100.00;100475.72;5085328;28;19924;-66
2021/08/19 12:05:57;;;;;;;;;;;;;;;18.35;100.00;100482.28;5070803;28;19931;-66
2021/08/19 12:08:24;;;;;;;;;;;;;;;18.20;100.00;100487.72;5071490;28;20023;-66
2021/08/19 12:10:51;;;;;;;;;;;;;;;18.05;100.00;100490.34;5071198;28;19956;-69
2021/08/19 12:13:17;;;;;;;;;;;;;;;17.89;100.00;100497.59;5070874;28;20255;-68
2021/08/19 12:15:45;;;;;;;;;;;;;;;17.91;100.00;100487.28;5070975;28;19950;-68
2021/08/19 12:18:12;;;;;;;;;;;;;;;18.07;100.00;100489.13;5070851;28;19964;-68
2021/08/19 12:20:38;;;;;;;;;;;;;;;18.09;100.00;100479.84;5070973;28;20262;-68
2021/08/19 12:23:22;;;;;;;;;;;;;;;18.15;100.00;100477.25;5071079;28;19971;-73
2021/08/19 12:25:48;;;;;;;;;;;;;;;18.16;100.00;100481.72;5071089;28;19978;-67
2021/08/19 12:28:17;;;;;;;;;;;;;;;18.19;100.00;100486.84;5070832;28;20023;-67